This is the latest recevied weather packets stored in our database for station/object DG5MG. If no packets are shown the sender has not sent any weather packets the latest 10 day(s).
| Time | Temp. | Humidity | Pressure | Rain* | Wind** | Luminosity | Snow |
|---|---|---|---|---|---|---|---|
| 1777492504 | 11.11° C | 43% | 1027.1 hPa | 0 mm | - | 0 W/m² | - |
| 1777489504 | 11.67° C | 44% | 1026.8 hPa | 0 mm | - | 0 W/m² | - |
| 1777488005 | 13.33° C | 41% | 1026.1 hPa | 0 mm | - | 0 W/m² | - |
| 1777486804 | 13.89° C | 39% | 1026.1 hPa | 0 mm | - | 0 W/m² | - |
| 1777485905 | 14.44° C | 39% | 1025.7 hPa | 0 mm | - | 0 W/m² | - |
| 1777482904 | 16.11° C | 37% | 1025.1 hPa | 0 mm | - | 14 W/m² | - |
| 1777482605 | 16.11° C | 37% | 1025.1 hPa | 0 mm | - | 42 W/m² | - |
| 1777482304 | 15.56° C | 36% | 1025.1 hPa | 0 mm | - | 68 W/m² | - |
| 1777481405 | 16.11° C | 36% | 1025.1 hPa | 0 mm | - | 121 W/m² | - |
| 1777481105 | 16.11° C | 36% | 1024.7 hPa | 0 mm | - | 140 W/m² | - |
| 1777479604 | 17.22° C | 35% | 1025.1 hPa | 0 mm | - | 242 W/m² | - |
| 1777478404 | 17.78° C | 35% | 1024.7 hPa | 0 mm | - | 331 W/m² | - |
| 1777478104 | 17.22° C | 35% | 1024.7 hPa | 0 mm | - | 354 W/m² | - |
| 1777475705 | 17.78° C | 36% | 1024.7 hPa | 0 mm | - | 548 W/m² | - |
| 1777475404 | 17.78° C | 36% | 1024.7 hPa | 0 mm | - | 573 W/m² | - |
| 1777473904 | 17.22° C | 36% | 1025.1 hPa | 0 mm | - | 698 W/m² | - |
| 1777472105 | 18.33° C | 36% | 1025.1 hPa | 0 mm | - | 844 W/m² | - |
| 1777470905 | 16.67° C | 37% | 1024.7 hPa | 0 mm | - | 936 W/m² | - |
| 1777469106 | 17.78° C | 37% | 1025.1 hPa | 0 mm | - | 1060 W/m² | - |
| 1777467906 | 17.78° C | 38% | 1024.7 hPa | 0 mm | - | 1132 W/m² | - |
| 1777465506 | 16.67° C | 38% | 1025.1 hPa | 0 mm | - | 1241 W/m² | - |
| 1777465206 | 17.22° C | 37% | 1024.8 hPa | 0 mm | - | 1251 W/m² | - |
| 1777461606 | 16.11° C | 39% | 1024.7 hPa | 0 mm | - | 1303 W/m² | - |
| 1777461006 | 16.67° C | 38% | 1025.1 hPa | 0 mm | - | 1298 W/m² | - |
| 1777460406 | 16.11° C | 39% | 1025.1 hPa | 0 mm | - | 1290 W/m² | - |
* Rain latest hour (hover to see other rain measurements)
** Current wind speed in m/s (hover to see current wind gust speed)